Time;durP1;ratioP1;P1;durP2;ratioP2;P2;SDS_P1;SDS_P2;PMS_P1;PMS_P2;Temp;Humidity;BMP_temperature;BMP_pressure;BME280_temperature;BME280_humidity;BME280_pressure;Samples;Min_cycle;Max_cycle;Signal;HPM_P1;HPM_P2
2021/07/20 00:01:41;;;;;;;4.90;4.30;;;15.70;99.90;;;;;;5075483;28;20704;-70
2021/07/20 00:04:06;;;;;;;8.00;4.80;;;15.70;99.90;;;;;;5075294;28;20425;-70
2021/07/20 00:06:32;;;;;;;4.40;3.87;;;15.70;99.90;;;;;;5075127;28;20900;-70
2021/07/20 00:08:57;;;;;;;6.30;5.20;;;15.80;99.90;;;;;;5077419;28;20183;-70
2021/07/20 00:11:23;;;;;;;7.70;4.40;;;15.80;99.90;;;;;;5095353;28;20549;-70
2021/07/20 00:13:49;;;;;;;5.20;4.27;;;15.90;99.90;;;;;;5095462;28;20629;-70
2021/07/20 00:16:15;;;;;;;6.37;5.27;;;16.00;99.90;;;;;;5095533;28;20626;-70
2021/07/20 00:18:41;;;;;;;5.70;4.50;;;16.00;99.90;;;;;;5095136;28;20297;-70
2021/07/20 00:21:08;;;;;;;8.37;5.03;;;16.00;99.90;;;;;;5094867;28;20185;-70
2021/07/20 00:23:34;;;;;;;7.10;5.13;;;16.20;99.90;;;;;;5094900;28;20420;-71
2021/07/20 00:26:00;;;;;;;6.13;5.47;;;16.20;99.90;;;;;;5095138;28;20447;-70
2021/07/20 00:28:26;;;;;;;5.50;4.10;;;16.20;99.90;;;;;;5095054;28;20471;-70
2021/07/20 00:30:52;;;;;;;8.10;4.60;;;16.20;99.90;;;;;;5094872;28;20803;-70
2021/07/20 00:33:18;;;;;;;6.20;4.10;;;16.20;99.90;;;;;;5095013;28;20168;-70
2021/07/20 00:35:44;;;;;;;9.20;4.30;;;16.20;99.90;;;;;;5094663;28;20170;-70
2021/07/20 00:38:11;;;;;;;6.40;4.30;;;16.20;99.90;;;;;;5094559;28;20417;-70
2021/07/20 00:40:37;;;;;;;5.00;3.57;;;16.30;99.90;;;;;;5094993;28;20861;-71
2021/07/20 00:43:03;;;;;;;7.37;3.63;;;16.30;99.90;;;;;;5094665;28;20451;-70
2021/07/20 00:45:29;;;;;;;7.43;3.87;;;16.20;99.90;;;;;;5094924;28;20170;-70
2021/07/20 00:47:55;;;;;;;6.10;4.20;;;16.30;99.90;;;;;;5094747;28;20461;-70
2021/07/20 00:50:24;;;;;;;3.70;3.40;;;16.30;99.90;;;;;;5093328;28;20558;-72
2021/07/20 00:52:49;;;;;;;4.77;3.97;;;16.30;99.90;;;;;;5094515;28;20179;-70
2021/07/20 00:55:15;;;;;;;3.87;3.50;;;16.30;99.90;;;;;;5083311;28;20473;-70
2021/07/20 00:57:42;;;;;;;4.03;3.73;;;16.40;99.90;;;;;;5073264;28;20178;-70
2021/07/20 01:00:11;;;;;;;5.10;4.47;;;16.40;99.90;;;;;;5074569;28;20429;-70
2021/07/20 01:02:37;;;;;;;4.73;3.97;;;16.40;99.90;;;;;;5073775;28;20420;-70
2021/07/20 01:05:05;;;;;;;5.40;4.10;;;16.40;99.90;;;;;;5072883;28;20510;-70
2021/07/20 01:07:33;;;;;;;7.23;3.67;;;16.40;99.90;;;;;;5074059;28;20223;-70
2021/07/20 01:09:59;;;;;;;5.60;3.80;;;16.40;99.90;;;;;;5073943;28;20482;-70
2021/07/20 01:12:26;;;;;;;6.77;3.50;;;16.50;99.90;;;;;;5074016;28;20490;-70
2021/07/20 01:14:54;;;;;;;5.40;3.47;;;16.50;99.90;;;;;;5074084;28;20443;-70
2021/07/20 01:17:20;;;;;;;5.97;4.20;;;16.60;99.90;;;;;;5074003;28;20407;-70
2021/07/20 01:19:54;;;;;;;3.73;3.30;;;16.60;99.90;;;;;;5073782;28;20529;-70
2021/07/20 01:22:26;;;;;;;4.53;4.13;;;16.50;99.90;;;;;;5073922;28;20405;-70
2021/07/20 01:24:52;;;;;;;4.30;3.87;;;16.60;99.90;;;;;;5073692;28;20415;-70
2021/07/20 01:27:17;;;;;;;3.50;3.20;;;16.60;99.90;;;;;;5073593;28;20418;-70
2021/07/20 01:29:43;;;;;;;4.87;3.87;;;16.60;99.90;;;;;;5073760;28;20187;-70
2021/07/20 01:32:10;;;;;;;3.40;3.10;;;16.50;99.90;;;;;;5073630;28;20171;-70
2021/07/20 01:34:36;;;;;;;5.73;3.70;;;16.50;99.90;;;;;;5073740;28;20429;-70
2021/07/20 01:37:02;;;;;;;7.03;4.03;;;16.50;99.90;;;;;;5073430;28;20411;-70
2021/07/20 01:39:28;;;;;;;4.80;3.50;;;16.60;99.90;;;;;;5073365;28;20863;-71
2021/07/20 01:41:55;;;;;;;5.30;3.37;;;16.50;99.90;;;;;;5073421;28;20423;-70
2021/07/20 01:44:20;;;;;;;5.13;3.50;;;16.50;99.90;;;;;;5073571;28;20410;-70
2021/07/20 01:46:47;;;;;;;8.53;4.20;;;16.50;99.90;;;;;;5073326;28;20899;-70
2021/07/20 01:49:15;;;;;;;4.20;3.80;;;16.50;99.90;;;;;;5073312;28;20654;-70
2021/07/20 01:51:41;;;;;;;7.40;3.80;;;16.50;99.90;;;;;;5073082;28;20458;-69
2021/07/20 01:54:08;;;;;;;5.30;3.90;;;16.50;99.90;;;;;;5073228;28;20406;-69
2021/07/20 01:56:34;;;;;;;4.50;3.73;;;16.50;99.90;;;;;;5073591;28;20416;-69
2021/07/20 01:59:00;;;;;;;6.60;4.17;;;16.50;99.90;;;;;;5073072;28;20438;-69
2021/07/20 02:01:28;;;;;;;5.57;3.93;;;16.50;99.90;;;;;;5072957;28;20171;-69
2021/07/20 02:04:12;;;;;;;3.83;3.50;;;16.50;99.90;;;;;;5072951;28;20571;-69
2021/07/20 02:09:28;;;;;;;4.30;3.90;;;16.50;99.90;;;;;;5073123;28;20800;-69
2021/07/20 02:11:55;;;;;;;4.00;3.67;;;16.50;99.90;;;;;;5072769;28;20475;-69
2021/07/20 02:14:27;;;;;;;5.47;3.60;;;16.50;99.90;;;;;;5072759;28;20813;-69
2021/07/20 02:16:56;;;;;;;5.83;3.80;;;16.50;99.90;;;;;;5072778;28;20442;-69
2021/07/20 02:19:25;;;;;;;7.70;3.80;;;16.50;99.90;;;;;;5072521;28;20437;-69
2021/07/20 02:21:53;;;;;;;5.73;3.60;;;16.50;99.90;;;;;;5072531;28;20453;-69
2021/07/20 02:24:23;;;;;;;6.50;3.07;;;16.50;99.90;;;;;;5072651;28;20414;-69
2021/07/20 02:26:49;;;;;;;6.07;3.40;;;16.50;99.90;;;;;;5072585;28;20409;-69
2021/07/20 02:29:16;;;;;;;6.73;4.50;;;16.50;99.90;;;;;;5073014;28;20495;-69
2021/07/20 02:31:45;;;;;;;5.03;3.50;;;16.50;99.90;;;;;;5072510;28;20971;-69
2021/07/20 02:34:11;;;;;;;4.93;3.90;;;16.50;99.90;;;;;;5072600;28;20803;-69
2021/07/20 02:36:39;;;;;;;3.63;3.23;;;16.50;99.90;;;;;;5072846;28;20402;-69
2021/07/20 02:39:07;;;;;;;5.90;3.23;;;16.50;99.90;;;;;;5073239;28;20961;-70
2021/07/20 02:41:33;;;;;;;6.00;4.40;;;16.50;99.90;;;;;;5072869;28;20414;-71
2021/07/20 02:44:01;;;;;;;3.67;3.37;;;16.50;99.90;;;;;;5072949;28;20908;-71
2021/07/20 02:46:27;;;;;;;7.33;3.40;;;16.50;99.90;;;;;;5072802;28;20915;-69
2021/07/20 02:48:52;;;;;;;4.50;3.00;;;16.50;99.90;;;;;;5072489;28;20413;-70
2021/07/20 02:51:19;;;;;;;6.60;3.93;;;16.50;99.90;;;;;;5072254;28;20461;-71
2021/07/20 02:53:48;;;;;;;7.33;4.03;;;16.50;99.90;;;;;;5072314;28;20164;-71
2021/07/20 02:56:14;;;;;;;4.13;3.60;;;16.50;99.90;;;;;;5072163;28;20889;-71
2021/07/20 02:58:43;;;;;;;3.90;2.93;;;16.50;99.90;;;;;;5072005;28;20429;-71
2021/07/20 03:01:10;;;;;;;5.87;3.73;;;16.50;99.90;;;;;;5070851;28;20513;-71
2021/07/20 03:03:35;;;;;;;4.70;3.27;;;16.50;99.90;;;;;;5071950;28;20454;-70
2021/07/20 03:06:05;;;;;;;4.63;3.40;;;16.50;99.90;;;;;;5072033;28;20451;-71
2021/07/20 03:08:34;;;;;;;6.27;3.63;;;16.40;99.90;;;;;;5071872;28;20218;-71
2021/07/20 03:11:03;;;;;;;3.77;2.60;;;16.50;99.90;;;;;;5071794;28;20449;-71
2021/07/20 03:13:30;;;;;;;3.40;2.93;;;16.40;99.90;;;;;;5071841;28;20414;-71
2021/07/20 03:15:58;;;;;;;3.40;3.10;;;16.40;99.90;;;;;;5071820;28;20417;-72
2021/07/20 03:18:28;;;;;;;5.87;3.47;;;16.40;99.90;;;;;;5071575;28;20407;-72
2021/07/20 03:20:55;;;;;;;4.60;3.23;;;16.40;99.90;;;;;;5070943;28;20422;-71
2021/07/20 03:23:22;;;;;;;5.83;2.80;;;16.40;99.90;;;;;;5071930;28;20470;-73
2021/07/20 03:25:49;;;;;;;3.80;3.50;;;16.40;99.90;;;;;;5071609;28;20823;-73
2021/07/20 03:28:16;;;;;;;3.30;3.00;;;16.50;99.90;;;;;;5070273;28;20420;-73
2021/07/20 03:30:43;;;;;;;6.03;4.23;;;16.40;99.90;;;;;;5071768;28;20511;-72
2021/07/20 03:33:09;;;;;;;3.80;3.33;;;16.40;99.90;;;;;;5072425;28;20413;-72
2021/07/20 03:35:35;;;;;;;4.17;3.20;;;16.40;99.90;;;;;;5070417;28;20976;-72
2021/07/20 03:38:01;;;;;;;6.77;2.90;;;16.40;99.90;;;;;;5071561;28;20539;-71
2021/07/20 03:40:27;;;;;;;5.33;3.50;;;16.40;99.90;;;;;;5071423;28;20202;-72
2021/07/20 03:42:55;;;;;;;4.13;2.70;;;16.40;99.90;;;;;;5071757;28;20508;-73
2021/07/20 03:45:21;;;;;;;4.37;3.20;;;16.40;99.90;;;;;;5071554;28;20410;-71
2021/07/20 03:47:47;;;;;;;4.77;3.50;;;16.30;99.90;;;;;;5071470;28;20413;-71
2021/07/20 03:50:17;;;;;;;5.50;3.30;;;16.30;99.90;;;;;;5071540;28;20848;-72
2021/07/20 03:52:44;;;;;;;4.10;2.70;;;16.40;99.90;;;;;;5071376;28;20465;-72
2021/07/20 03:55:10;;;;;;;4.50;3.40;;;16.30;99.90;;;;;;5071555;28;20409;-72
2021/07/20 03:57:36;;;;;;;7.20;3.00;;;16.40;99.90;;;;;;5071313;28;20414;-71
2021/07/20 04:00:05;;;;;;;4.60;3.20;;;16.40;99.90;;;;;;5071432;28;20234;-71
2021/07/20 04:02:43;;;;;;;6.40;4.00;;;16.40;99.90;;;;;;5071043;28;20179;-71
2021/07/20 04:05:12;;;;;;;6.17;4.00;;;16.40;99.90;;;;;;5071369;28;20397;-71
2021/07/20 04:07:39;;;;;;;3.50;3.20;;;16.30;99.90;;;;;;5071068;28;20413;-71
2021/07/20 04:10:05;;;;;;;4.67;3.30;;;16.40;99.90;;;;;;5071156;28;20498;-71
2021/07/20 04:12:33;;;;;;;6.70;3.53;;;16.40;99.90;;;;;;5071249;28;20572;-71
2021/07/20 04:14:59;;;;;;;3.67;3.30;;;16.40;99.90;;;;;;5071290;28;20421;-71
2021/07/20 04:17:26;;;;;;;6.90;3.60;;;16.40;99.90;;;;;;5071227;28;20795;-70
2021/07/20 04:19:51;;;;;;;3.70;3.40;;;16.40;99.90;;;;;;5070997;28;20421;-71
2021/07/20 04:22:17;;;;;;;6.70;3.00;;;16.50;99.90;;;;;;5071085;28;20427;-70
2021/07/20 04:24:44;;;;;;;4.07;3.63;;;16.50;99.90;;;;;;5071296;28;20192;-71
2021/07/20 04:27:10;;;;;;;6.67;3.30;;;16.40;99.90;;;;;;5071362;28;20171;-71
2021/07/20 04:29:35;;;;;;;9.10;3.77;;;16.50;99.90;;;;;;5071255;28;20425;-70
2021/07/20 04:32:04;;;;;;;6.00;3.40;;;16.50;99.90;;;;;;5074481;28;20203;-72
2021/07/20 04:34:32;;;;;;;3.73;3.43;;;16.50;99.90;;;;;;5074551;28;20900;-70
2021/07/20 04:37:00;;;;;;;5.70;3.30;;;16.50;99.90;;;;;;5074524;28;20406;-71
2021/07/20 04:39:26;;;;;;;4.63;3.30;;;16.50;99.90;;;;;;5074673;28;20419;-70
2021/07/20 04:41:53;;;;;;;4.10;3.40;;;16.50;99.90;;;;;;5074687;28;20408;-71
2021/07/20 04:44:19;;;;;;;5.07;3.80;;;16.60;99.90;;;;;;5074651;28;20407;-72
2021/07/20 04:46:46;;;;;;;4.17;3.27;;;16.60;99.90;;;;;;5074534;28;20439;-72
2021/07/20 04:49:12;;;;;;;4.60;3.37;;;16.60;99.90;;;;;;5075385;28;20425;-72
2021/07/20 04:51:39;;;;;;;5.60;3.20;;;16.60;99.90;;;;;;5075080;28;20462;-71
2021/07/20 04:54:07;;;;;;;3.77;3.23;;;16.70;99.90;;;;;;5074793;28;20405;-72
2021/07/20 04:56:32;;;;;;;4.57;3.50;;;16.70;99.90;;;;;;5074702;28;20402;-72
2021/07/20 04:58:58;;;;;;;4.63;3.33;;;16.70;99.90;;;;;;5074173;28;20433;-71
2021/07/20 05:01:24;;;;;;;5.53;3.67;;;16.80;99.90;;;;;;5074201;28;20679;-72
2021/07/20 05:03:51;;;;;;;7.80;3.70;;;16.90;99.90;;;;;;5074087;28;20274;-72
2021/07/20 05:06:19;;;;;;;4.40;3.60;;;16.90;99.90;;;;;;5074042;28;20405;-72
2021/07/20 05:08:45;;;;;;;5.63;3.67;;;16.90;99.90;;;;;;5073941;28;20514;-71
2021/07/20 05:11:11;;;;;;;7.03;4.80;;;16.90;99.90;;;;;;5074191;28;20462;-70
2021/07/20 05:13:38;;;;;;;4.27;3.80;;;17.00;99.90;;;;;;5074302;28;20164;-70
2021/07/20 05:16:05;;;;;;;4.20;3.60;;;17.10;99.90;;;;;;5072758;28;20456;-71
2021/07/20 05:18:34;;;;;;;4.70;3.43;;;17.00;99.90;;;;;;5074634;28;20398;-72
2021/07/20 05:20:59;;;;;;;4.83;3.40;;;16.80;99.90;;;;;;5074957;28;20422;-71
2021/07/20 05:23:26;;;;;;;3.87;3.47;;;16.90;99.90;;;;;;5073803;28;20411;-71
2021/07/20 05:25:54;;;;;;;6.43;3.97;;;17.00;99.90;;;;;;5074095;28;20575;-71
2021/07/20 05:28:21;;;;;;;3.67;3.37;;;16.90;99.90;;;;;;5073700;28;20397;-72
2021/07/20 05:30:48;;;;;;;4.47;3.77;;;17.10;99.90;;;;;;5073365;28;21026;-71
2021/07/20 05:33:18;;;;;;;5.60;4.40;;;17.20;99.90;;;;;;5073721;28;20399;-71
2021/07/20 05:35:44;;;;;;;7.13;3.33;;;17.40;99.90;;;;;;5073630;28;20397;-71
2021/07/20 05:38:09;;;;;;;4.50;3.43;;;17.40;99.90;;;;;;5073529;28;20400;-71
2021/07/20 05:40:35;;;;;;;6.20;3.10;;;17.60;99.90;;;;;;5073613;28;20677;-71
2021/07/20 05:43:00;;;;;;;6.80;3.60;;;17.70;99.90;;;;;;5071841;28;20188;-71
2021/07/20 05:45:27;;;;;;;3.30;3.00;;;17.90;99.90;;;;;;5073356;28;20166;-71
2021/07/20 05:47:53;;;;;;;6.90;4.90;;;18.00;99.90;;;;;;5073284;28;20534;-71
2021/07/20 05:50:20;;;;;;;4.17;3.53;;;17.60;99.90;;;;;;5073186;28;20462;-73
2021/07/20 05:52:47;;;;;;;4.03;3.40;;;17.40;99.90;;;;;;5073263;28;20427;-71
2021/07/20 05:55:14;;;;;;;6.90;2.80;;;17.70;99.90;;;;;;5073638;28;20415;-71
2021/07/20 05:57:45;;;;;;;3.73;3.40;;;17.50;99.90;;;;;;5073113;28;20549;-71
2021/07/20 06:00:12;;;;;;;4.50;3.73;;;17.60;99.90;;;;;;5072887;28;20419;-71
2021/07/20 06:02:39;;;;;;;5.10;3.90;;;18.10;99.90;;;;;;5072855;28;20507;-71
2021/07/20 06:05:12;;;;;;;4.20;3.17;;;17.80;99.90;;;;;;5072996;28;20530;-71
2021/07/20 06:07:38;;;;;;;3.40;3.10;;;17.90;99.90;;;;;;5072775;28;20772;-72
2021/07/20 06:10:04;;;;;;;6.17;3.50;;;18.20;99.90;;;;;;5072642;28;20434;-72
2021/07/20 06:12:31;;;;;;;6.80;3.10;;;18.50;99.90;;;;;;5072668;28;20547;-72
2021/07/20 06:14:58;;;;;;;5.40;4.00;;;18.70;99.90;;;;;;5072771;28;20406;-71
2021/07/20 06:17:24;;;;;;;4.77;3.63;;;19.00;99.90;;;;;;5072831;28;20489;-72
2021/07/20 06:19:51;;;;;;;5.90;3.43;;;18.40;99.90;;;;;;5072666;28;20417;-71
2021/07/20 06:22:21;;;;;;;3.90;3.17;;;18.90;99.90;;;;;;5072557;28;20441;-71
2021/07/20 06:24:47;;;;;;;5.30;3.07;;;19.40;99.90;;;;;;5072817;28;20470;-71
2021/07/20 06:27:14;;;;;;;5.23;3.20;;;19.50;99.90;;;;;;5072428;28;20412;-71
2021/07/20 06:29:42;;;;;;;2.73;2.40;;;19.70;99.90;;;;;;5072488;28;20977;-71
2021/07/20 06:32:09;;;;;;;7.80;3.27;;;20.50;99.90;;;;;;5072393;28;20454;-71
2021/07/20 06:34:37;;;;;;;5.53;3.07;;;21.30;99.90;;;;;;5072492;28;20764;-71
2021/07/20 06:37:04;;;;;;;6.00;2.50;;;20.70;99.90;;;;;;5072308;28;20408;-70
2021/07/20 06:39:29;;;;;;;5.90;2.43;;;21.30;99.90;;;;;;5072388;28;20428;-71
2021/07/20 06:41:56;;;;;;;2.43;2.17;;;22.30;99.90;;;;;;5072217;28;20850;-70
2021/07/20 06:44:22;;;;;;;2.80;2.20;;;21.50;99.90;;;;;;5072500;28;20174;-72
2021/07/20 06:46:48;;;;;;;3.27;2.80;;;22.00;99.90;;;;;;5072565;28;20866;-71
2021/07/20 06:49:17;;;;;;;4.17;2.50;;;22.80;99.90;;;;;;5072200;28;20469;-72
2021/07/20 06:51:42;;;;;;;5.23;2.37;;;22.30;99.90;;;;;;5072536;28;20453;-72
2021/07/20 06:54:08;;;;;;;3.60;2.10;;;22.90;99.90;;;;;;5071309;28;20509;-72
2021/07/20 06:56:38;;;;;;;2.73;1.97;;;22.70;99.90;;;;;;5072103;28;20171;-70
2021/07/20 06:59:04;;;;;;;2.80;1.50;;;24.10;99.90;;;;;;5072066;28;20190;-72
2021/07/20 07:01:32;;;;;;;3.97;2.10;;;24.60;99.90;;;;;;5072041;28;20499;-71
2021/07/20 07:04:31;;;;;;;2.10;1.77;;;24.60;99.90;;;;;;5072032;28;20990;-68
2021/07/20 07:06:58;;;;;;;2.23;2.03;;;25.80;99.90;;;;;;5072083;28;20428;-70
2021/07/20 07:09:29;;;;;;;4.73;2.43;;;24.80;99.90;;;;;;5071835;28;20428;-69
2021/07/20 07:11:56;;;;;;;4.63;2.23;;;24.00;99.90;;;;;;5071673;28;20451;-70
2021/07/20 07:14:23;;;;;;;2.63;2.00;;;24.90;99.90;;;;;;5072438;28;20774;-70
2021/07/20 07:16:52;;;;;;;3.23;1.73;;;23.70;99.90;;;;;;5072019;28;20470;-70
2021/07/20 07:19:21;;;;;;;3.20;2.90;;;25.50;99.90;;;;;;5071878;28;20792;-70
2021/07/20 07:21:49;;;;;;;5.50;4.47;;;25.80;99.70;;;;;;5071962;28;20412;-70
2021/07/20 07:24:16;;;;;;;4.50;2.97;;;26.50;97.90;;;;;;5071949;28;20487;-70
2021/07/20 07:26:44;;;;;;;5.57;2.43;;;25.20;97.10;;;;;;5071940;28;20400;-71
2021/07/20 07:29:11;;;;;;;4.07;2.50;;;24.50;98.50;;;;;;5071885;28;20923;-71
2021/07/20 07:31:37;;;;;;;3.10;2.40;;;23.70;98.90;;;;;;5071557;28;20447;-70
2021/07/20 07:34:03;;;;;;;6.20;5.00;;;25.20;97.00;;;;;;5071894;28;20397;-71
2021/07/20 07:36:30;;;;;;;3.60;2.37;;;25.40;97.20;;;;;;5071720;28;20428;-71
2021/07/20 07:38:58;;;;;;;5.43;3.10;;;26.70;93.90;;;;;;5071505;28;20425;-71
2021/07/20 07:41:24;;;;;;;3.00;2.50;;;24.00;94.90;;;;;;5071707;28;20404;-71
2021/07/20 07:43:53;;;;;;;2.60;2.00;;;24.10;97.00;;;;;;5071650;28;20408;-70
2021/07/20 07:46:20;;;;;;;2.67;2.20;;;23.90;96.00;;;;;;5071851;28;20404;-71
2021/07/20 07:48:46;;;;;;;3.17;2.80;;;23.80;95.00;;;;;;5071454;28;20467;-71
2021/07/20 07:51:12;;;;;;;3.10;2.73;;;21.50;96.70;;;;;;5071647;28;20458;-73
2021/07/20 07:53:40;;;;;;;7.00;2.90;;;21.80;98.10;;;;;;5071631;28;20894;-69
2021/07/20 07:56:07;;;;;;;3.13;2.47;;;23.30;96.80;;;;;;5072286;28;20416;-69
2021/07/20 07:58:34;;;;;;;3.63;2.67;;;23.30;97.00;;;;;;5071998;28;20569;-69
2021/07/20 08:01:03;;;;;;;7.53;3.20;;;22.50;97.30;;;;;;5071524;28;20466;-70
2021/07/20 08:03:30;;;;;;;4.40;3.17;;;22.60;97.50;;;;;;5071337;28;20436;-70
2021/07/20 08:05:59;;;;;;;3.37;2.87;;;23.30;96.90;;;;;;5072724;28;20404;-70
2021/07/20 08:08:25;;;;;;;3.23;2.20;;;22.40;95.60;;;;;;5075157;28;20415;-69
2021/07/20 08:10:51;;;;;;;2.80;2.40;;;22.00;95.90;;;;;;5075128;28;20512;-70
2021/07/20 08:13:18;;;;;;;2.90;2.50;;;22.50;97.20;;;;;;5075086;28;20432;-70
2021/07/20 08:15:46;;;;;;;4.53;2.20;;;21.50;97.10;;;;;;5075137;28;20463;-70
2021/07/20 08:18:12;;;;;;;2.77;2.57;;;22.30;97.50;;;;;;5074995;28;20823;-70
2021/07/20 08:20:38;;;;;;;3.73;2.87;;;22.00;97.40;;;;;;5073641;28;20442;-70
2021/07/20 08:23:04;;;;;;;3.60;2.30;;;22.10;96.70;;;;;;5074882;28;20257;-70
2021/07/20 08:25:34;;;;;;;4.20;2.53;;;22.60;96.50;;;;;;5075162;28;20405;-70
2021/07/20 08:28:07;;;;;;;2.83;2.57;;;23.50;94.90;;;;;;5074768;28;20393;-70
2021/07/20 08:30:36;;;;;;;6.20;2.40;;;22.50;95.70;;;;;;5074928;28;20549;-70
2021/07/20 08:33:03;;;;;;;3.03;2.70;;;23.20;94.70;;;;;;5074660;28;20944;-70
2021/07/20 08:35:31;;;;;;;5.30;2.77;;;23.10;93.80;;;;;;5074550;28;20936;-70
2021/07/20 08:38:01;;;;;;;3.13;2.37;;;24.00;93.90;;;;;;5074492;28;20784;-70
2021/07/20 08:40:26;;;;;;;3.30;2.70;;;24.30;92.80;;;;;;5075096;28;20428;-70
2021/07/20 08:43:31;;;;;;;3.27;2.70;;;24.80;91.70;;;;;;5074548;28;20415;-70
2021/07/20 08:46:18;;;;;;;4.10;3.17;;;24.80;91.10;;;;;;5074545;28;20180;-70
2021/07/20 08:49:02;;;;;;;3.40;2.67;;;24.00;90.50;;;;;;5074215;28;20433;-69
2021/07/20 08:51:38;;;;;;;4.23;2.40;;;22.60;91.20;;;;;;5074347;28;20827;-70
2021/07/20 08:54:10;;;;;;;3.60;2.80;;;22.40;92.70;;;;;;5074823;28;20402;-69
2021/07/20 08:56:41;;;;;;;4.27;2.40;;;22.50;91.70;;;;;;5074533;28;20405;-70
2021/07/20 08:59:08;;;;;;;4.60;2.40;;;22.80;92.30;;;;;;5074120;28;21168;-70
2021/07/20 09:01:46;;;;;;;2.80;2.60;;;22.00;94.00;;;;;;5074829;28;20454;-69
2021/07/20 09:04:21;;;;;;;3.60;2.73;;;22.50;94.20;;;;;;5074539;28;20432;-70
2021/07/20 09:06:47;;;;;;;2.77;2.57;;;22.60;94.30;;;;;;5074628;28;20415;-70
2021/07/20 09:09:18;;;;;;;3.30;2.27;;;22.70;94.60;;;;;;5074287;28;20420;-69
2021/07/20 09:11:57;;;;;;;4.73;3.03;;;23.10;94.00;;;;;;5073885;28;20505;-70
2021/07/20 09:14:29;;;;;;;2.53;2.20;;;22.90;94.90;;;;;;5074313;28;20905;-70
2021/07/20 09:17:10;;;;;;;2.87;2.27;;;23.40;93.30;;;;;;5073534;28;20434;-69
2021/07/20 09:19:54;;;;;;;2.90;2.53;;;23.00;94.40;;;;;;5074025;28;20424;-70
2021/07/20 09:22:26;;;;;;;3.30;3.00;;;22.60;95.30;;;;;;5074221;28;20409;-70
2021/07/20 09:24:59;;;;;;;3.40;2.53;;;22.70;96.50;;;;;;5073769;28;20401;-73
2021/07/20 09:27:37;;;;;;;4.50;3.17;;;22.50;96.90;;;;;;5073664;28;20400;-71
2021/07/20 09:30:14;;;;;;;3.40;3.07;;;22.70;97.70;;;;;;5073831;28;20793;-71
2021/07/20 09:32:50;;;;;;;4.30;2.80;;;22.80;97.90;;;;;;5073790;28;20401;-70
2021/07/20 09:35:40;;;;;;;3.70;2.77;;;21.50;96.90;;;;;;5074273;28;20805;-72
2021/07/20 09:38:43;;;;;;;4.20;2.53;;;22.20;97.60;;;;;;5073534;28;20412;-70
2021/07/20 09:41:33;;;;;;;4.07;2.37;;;22.00;96.20;;;;;;5073524;28;20499;-70
2021/07/20 09:44:31;;;;;;;15.63;14.13;;;22.10;95.80;;;;;;5073725;28;20855;-70
2021/07/20 09:47:06;;;;;;;5.67;5.13;;;23.20;95.10;;;;;;5073373;28;20907;-70
2021/07/20 09:50:04;;;;;;;5.47;3.20;;;22.60;95.10;;;;;;5073439;28;20518;-71
2021/07/20 09:52:41;;;;;;;4.00;2.43;;;22.80;94.30;;;;;;5073313;28;20903;-71
2021/07/20 09:55:42;;;;;;;3.77;2.90;;;23.30;93.50;;;;;;5094224;28;20429;-71
2021/07/20 09:58:28;;;;;;;2.60;1.87;;;22.40;94.90;;;;;;5087440;28;20427;-71
2021/07/20 10:01:14;;;;;;;2.40;1.97;;;21.80;95.60;;;;;;5075542;28;20423;-71
2021/07/20 10:04:08;;;;;;;3.60;2.37;;;22.00;95.50;;;;;;5112633;28;20429;-71
2021/07/20 10:06:47;;;;;;;3.40;2.10;;;21.80;95.20;;;;;;5098954;28;20411;-72
2021/07/20 10:09:24;;;;;;;2.70;2.50;;;21.50;96.10;;;;;;5093401;28;20434;-71
2021/07/20 10:11:53;;;;;;;6.07;5.00;;;22.10;96.20;;;;;;5106631;28;20453;-71
2021/07/20 10:14:27;;;;;;;2.83;2.40;;;22.50;95.50;;;;;;5106011;28;20876;-71
2021/07/20 10:17:11;;;;;;;3.10;2.70;;;21.50;96.40;;;;;;5093153;28;20405;-71
2021/07/20 10:19:51;;;;;;;2.83;2.03;;;21.70;97.30;;;;;;5093050;28;20426;-71
2021/07/20 10:22:26;;;;;;;4.00;3.37;;;22.30;96.30;;;;;;5093137;28;20928;-71
2021/07/20 10:25:01;;;;;;;3.60;2.30;;;23.00;96.10;;;;;;5092911;28;21005;-71
2021/07/20 10:27:45;;;;;;;7.73;2.90;;;23.60;95.00;;;;;;5096967;28;20450;-71
2021/07/20 10:30:13;;;;;;;4.07;2.20;;;23.30;95.10;;;;;;5113037;28;20426;-71
2021/07/20 10:32:53;;;;;;;4.43;2.83;;;23.10;95.50;;;;;;5094756;28;20455;-71
2021/07/20 10:35:24;;;;;;;5.80;4.33;;;23.20;96.80;;;;;;5092772;28;20487;-71
2021/07/20 10:37:53;;;;;;;4.53;2.83;;;23.60;95.60;;;;;;5079563;28;20507;-71
2021/07/20 10:40:21;;;;;;;18.83;16.23;;;23.10;95.30;;;;;;5089901;28;20431;-71
2021/07/20 10:42:59;;;;;;;6.97;6.30;;;23.10;94.80;;;;;;5072541;28;20431;-71
2021/07/20 10:45:28;;;;;;;2.53;2.30;;;23.30;95.40;;;;;;5080289;28;20925;-72
2021/07/20 10:48:04;;;;;;;4.43;2.70;;;22.50;97.40;;;;;;5092578;28;20485;-70
2021/07/20 10:50:38;;;;;;;4.97;3.57;;;22.30;99.60;;;;;;5092394;28;20461;-70
2021/07/20 10:53:22;;;;;;;12.07;3.40;;;22.50;99.80;;;;;;5092345;28;20410;-70
2021/07/20 10:56:05;;;;;;;11.53;6.33;;;22.50;99.90;;;;;;5091731;28;20406;-71
2021/07/20 10:58:53;;;;;;;10.90;7.50;;;22.30;99.90;;;;;;5092140;28;20406;-70
2021/07/20 11:01:22;;;;;;;8.23;5.53;;;22.50;99.90;;;;;;5092343;28;20413;-70
2021/07/20 11:04:09;;;;;;;7.10;3.13;;;22.40;99.90;;;;;;5092317;28;20525;-71
2021/07/20 11:06:38;;;;;;;5.13;3.13;;;21.90;99.90;;;;;;5091766;28;20773;-71
2021/07/20 11:09:07;;;;;;;4.97;2.80;;;21.40;99.90;;;;;;5078386;28;20441;-71
2021/07/20 11:11:42;;;;;;;4.30;2.60;;;21.50;99.90;;;;;;5071896;28;20480;-71
2021/07/20 11:14:09;;;;;;;5.27;3.10;;;20.90;99.90;;;;;;5072250;28;20847;-71
2021/07/20 11:16:35;;;;;;;3.70;2.73;;;21.10;99.90;;;;;;5072229;28;20419;-71
2021/07/20 11:19:03;;;;;;;5.33;2.80;;;21.70;99.90;;;;;;5071921;28;20539;-72
2021/07/20 11:21:31;;;;;;;7.53;5.57;;;21.40;99.90;;;;;;5071661;28;20261;-71
2021/07/20 11:23:57;;;;;;;6.53;4.87;;;21.50;99.90;;;;;;5071741;28;20440;-71
2021/07/20 11:26:24;;;;;;;14.97;12.53;;;22.00;99.90;;;;;;5072164;28;21102;-71
2021/07/20 11:28:51;;;;;;;5.63;3.57;;;22.80;99.90;;;;;;5071633;28;20404;-70
2021/07/20 11:31:32;;;;;;;5.00;4.30;;;22.40;99.90;;;;;;5071578;28;20935;-72
2021/07/20 11:34:04;;;;;;;7.43;2.50;;;22.40;99.90;;;;;;5091698;28;20712;-70
2021/07/20 11:36:36;;;;;;;5.07;2.73;;;22.00;99.90;;;;;;5091809;28;20412;-70
2021/07/20 11:39:03;;;;;;;2.43;2.10;;;21.90;99.90;;;;;;5091634;28;20573;-71
2021/07/20 11:41:37;;;;;;;2.60;2.30;;;22.60;99.90;;;;;;5094110;28;20450;-71
2021/07/20 11:44:13;;;;;;;3.57;2.40;;;22.70;99.60;;;;;;5095840;28;20410;-70
2021/07/20 11:46:47;;;;;;;5.33;4.27;;;22.70;99.90;;;;;;5075679;28;20773;-70
2021/07/20 11:49:22;;;;;;;3.13;2.77;;;23.10;99.90;;;;;;5075646;28;20802;-71
2021/07/20 11:51:52;;;;;;;3.40;2.53;;;23.20;99.80;;;;;;5075642;28;20452;-72
2021/07/20 11:54:41;;;;;;;4.70;2.27;;;23.70;99.30;;;;;;5075374;28;20789;-71
2021/07/20 11:57:45;;;;;;;2.90;2.60;;;23.30;99.90;;;;;;5075636;28;20406;-71
2021/07/20 12:00:29;;;;;;;3.30;2.50;;;22.80;99.90;;;;;;5075391;28;20458;-71
2021/07/20 12:03:11;;;;;;;7.97;3.10;;;22.80;99.90;;;;;;5106090;28;20429;-71
2021/07/20 12:05:58;;;;;;;4.90;2.33;;;22.70;99.90;;;;;;5107927;28;20442;-71
2021/07/20 12:08:27;;;;;;;4.33;3.00;;;21.90;99.90;;;;;;5095497;28;20495;-71
2021/07/20 12:11:01;;;;;;;3.00;2.53;;;21.70;99.90;;;;;;5095108;28;20454;-71
2021/07/20 12:13:27;;;;;;;3.03;2.57;;;21.30;99.90;;;;;;5095365;28;20418;-70
2021/07/20 12:15:55;;;;;;;4.60;2.73;;;21.50;99.90;;;;;;5095344;28;20780;-71
2021/07/20 12:18:21;;;;;;;3.97;2.87;;;21.60;99.90;;;;;;5095247;28;20215;-70
2021/07/20 12:20:47;;;;;;;4.60;2.57;;;21.70;99.90;;;;;;5095622;28;20471;-71
2021/07/20 12:23:12;;;;;;;2.53;2.33;;;21.40;99.90;;;;;;5095046;28;20186;-71
2021/07/20 12:25:38;;;;;;;3.20;2.90;;;21.20;99.90;;;;;;5095431;28;20179;-71
2021/07/20 12:28:06;;;;;;;3.10;2.63;;;21.20;99.90;;;;;;5094952;28;20180;-71
2021/07/20 12:30:32;;;;;;;4.13;2.30;;;21.20;99.90;;;;;;5095041;28;20452;-71
2021/07/20 12:33:02;;;;;;;3.33;2.13;;;21.70;99.90;;;;;;5093764;28;20507;-71
2021/07/20 12:35:29;;;;;;;2.90;2.47;;;21.80;99.90;;;;;;5095245;28;20465;-71
2021/07/20 12:38:08;;;;;;;2.67;2.20;;;21.60;99.90;;;;;;5094741;28;20402;-71
2021/07/20 12:40:37;;;;;;;2.63;2.30;;;21.80;99.90;;;;;;5094810;28;20433;-71
2021/07/20 12:43:07;;;;;;;2.50;2.03;;;21.40;99.90;;;;;;5095055;28;20420;-71
2021/07/20 12:45:33;;;;;;;2.67;2.23;;;21.40;99.90;;;;;;5094987;28;20410;-72
2021/07/20 12:47:58;;;;;;;10.03;6.80;;;21.70;99.90;;;;;;5094710;28;20417;-71
2021/07/20 12:50:24;;;;;;;36.07;27.00;;;22.00;99.90;;;;;;5094624;28;20208;-71
2021/07/20 12:52:50;;;;;;;11.27;9.27;;;22.10;99.90;;;;;;5093395;28;20178;-71
2021/07/20 12:55:21;;;;;;;9.67;8.20;;;21.80;99.90;;;;;;5094186;28;20178;-71
2021/07/20 12:57:54;;;;;;;3.93;2.97;;;22.00;99.90;;;;;;5092149;28;20429;-71
2021/07/20 13:00:28;;;;;;;8.07;5.80;;;21.50;99.90;;;;;;5074240;28;20489;-71
2021/07/20 13:02:56;;;;;;;2.60;2.40;;;21.90;99.90;;;;;;5089469;28;20507;-72